createdAt,value
2019-03-02T00:00:27.831Z,31.63
2019-03-02T00:02:56.872Z,34.43
2019-03-02T00:05:26.496Z,32.83
2019-03-02T00:07:54.986Z,41.83
2019-03-02T00:10:24.071Z,38.60
2019-03-02T00:12:52.629Z,39.07
2019-03-02T00:15:21.107Z,33.90
2019-03-02T00:17:50.571Z,43.23
2019-03-02T00:20:19.770Z,44.57
2019-03-02T00:22:48.290Z,43.77
2019-03-02T00:25:16.745Z,41.50
2019-03-02T00:27:45.246Z,34.33
2019-03-02T00:30:17.649Z,45.47
2019-03-02T00:32:45.984Z,34.37
2019-03-02T00:35:14.563Z,33.33
2019-03-02T00:37:43.070Z,40.57
2019-03-02T00:40:11.702Z,38.73
2019-03-02T00:42:40.183Z,36.47
2019-03-02T00:45:14.097Z,35.03
2019-03-02T00:47:41.793Z,34.40
2019-03-02T00:50:11.392Z,33.03
2019-03-02T00:52:39.934Z,32.90
2019-03-02T00:55:08.887Z,32.30
2019-03-02T00:57:37.335Z,34.20
2019-03-02T01:00:15.180Z,39.10
2019-03-02T01:02:41.861Z,33.77
2019-03-02T01:05:10.402Z,33.90
2019-03-02T01:07:38.900Z,36.53
2019-03-02T01:10:19.086Z,36.47
2019-03-02T01:12:46.245Z,38.27
2019-03-02T01:15:17.240Z,42.37
2019-03-02T01:17:45.713Z,43.77
2019-03-02T01:20:15.078Z,41.80
2019-03-02T01:22:43.549Z,45.00
2019-03-02T01:25:14.437Z,48.73
2019-03-02T01:27:43.374Z,34.03
2019-03-02T01:30:19.712Z,39.57
2019-03-02T01:32:52.774Z,51.13
2019-03-02T01:35:20.162Z,40.07
2019-03-02T01:37:48.737Z,47.83
2019-03-02T01:40:17.306Z,46.23
2019-03-02T01:42:45.766Z,44.93
2019-03-02T01:45:16.038Z,46.93
2019-03-02T01:47:50.797Z,33.70
2019-03-02T01:50:16.770Z,41.07
2019-03-02T01:52:45.382Z,44.43
2019-03-02T01:55:15.621Z,42.77
2019-03-02T01:57:44.073Z,38.90
2019-03-02T02:00:22.413Z,51.63
2019-03-02T02:02:50.932Z,39.27
2019-03-02T02:05:19.395Z,42.13
2019-03-02T02:07:53.699Z,39.40
2019-03-02T02:10:18.240Z,36.73
2019-03-02T02:12:46.710Z,42.67
2019-03-02T02:15:29.410Z,39.50
2019-03-02T02:17:56.637Z,44.00
2019-03-02T02:20:25.105Z,41.40
2019-03-02T02:22:53.658Z,39.10
2019-03-02T02:25:23.034Z,40.87
2019-03-02T02:27:54.836Z,52.27
2019-03-02T02:30:28.840Z,37.97
2019-03-02T02:33:04.027Z,41.80
2019-03-02T02:35:27.929Z,36.30
2019-03-02T02:37:56.436Z,38.17
2019-03-02T02:40:24.903Z,38.40
2019-03-02T02:42:53.455Z,35.17
2019-03-02T02:45:22.321Z,36.70
2019-03-02T02:47:53.794Z,45.10
2019-03-02T02:50:29.479Z,31.53
2019-03-02T02:52:51.856Z,40.77
2019-03-02T02:55:20.386Z,40.33
2019-03-02T02:57:48.870Z,41.70
2019-03-02T03:00:25.432Z,33.60
2019-03-02T03:02:53.980Z,36.63
2019-03-02T03:05:22.488Z,38.77
2019-03-02T03:07:54.042Z,38.57
2019-03-02T03:10:27.713Z,34.03
2019-03-02T03:13:02.149Z,33.63
2019-03-02T03:15:36.059Z,36.50
2019-03-02T03:17:59.037Z,36.03
2019-03-02T03:20:27.541Z,39.13
2019-03-02T03:22:55.997Z,39.10
2019-03-02T03:25:24.468Z,35.10
2019-03-02T03:27:53.593Z,32.80
2019-03-02T03:30:33.711Z,41.83
2019-03-02T03:32:55.936Z,34.17
2019-03-02T03:35:22.793Z,37.40
2019-03-02T03:37:52.651Z,35.00
2019-03-02T03:40:25.268Z,37.80
2019-03-02T03:42:51.584Z,34.00
2019-03-02T03:45:20.035Z,36.03
2019-03-02T03:47:48.502Z,36.60
2019-03-02T03:50:17.071Z,28.77
2019-03-02T03:52:48.976Z,38.23
2019-03-02T03:55:24.281Z,32.57
2019-03-02T03:57:46.098Z,31.50
2019-03-02T04:00:16.555Z,36.53
2019-03-02T04:02:45.020Z,37.60
2019-03-02T04:05:13.670Z,37.57
2019-03-02T04:07:49.067Z,33.63
2019-03-02T04:10:14.935Z,40.97
2019-03-02T04:12:43.434Z,36.10
2019-03-02T04:15:12.014Z,31.93
2019-03-02T04:17:40.933Z,36.23
2019-03-02T04:20:27.960Z,36.73
2019-03-02T04:22:57.992Z,34.60
2019-03-02T04:25:26.473Z,36.20
2019-03-02T04:27:56.130Z,42.63
2019-03-02T04:30:30.579Z,35.23
2019-03-02T04:32:55.047Z,33.77
2019-03-02T04:35:23.524Z,40.33
2019-03-02T04:37:51.993Z,34.37
2019-03-02T04:40:23.314Z,34.87
2019-03-02T04:42:51.528Z,44.07
2019-03-02T04:45:20.121Z,36.13
2019-03-02T04:47:48.643Z,39.63
2019-03-02T04:50:17.139Z,34.47
2019-03-02T04:52:46.649Z,42.83
2019-03-02T04:55:15.776Z,40.70
2019-03-02T04:57:44.280Z,32.67
2019-03-02T05:00:15.175Z,36.40
2019-03-02T05:02:43.628Z,42.57
2019-03-02T05:05:12.308Z,40.43
2019-03-02T05:07:40.778Z,37.07
2019-03-02T05:10:11.950Z,32.87
2019-03-02T05:12:40.434Z,34.70
2019-03-02T05:15:15.838Z,47.47
2019-03-02T05:17:43.035Z,35.03
2019-03-02T05:20:12.848Z,40.67
2019-03-02T05:22:41.300Z,39.33
2019-03-02T05:25:10.405Z,38.70
2019-03-02T05:27:38.977Z,42.67
2019-03-02T05:30:12.511Z,37.47
2019-03-02T05:32:40.969Z,42.10
2019-03-02T05:35:11.786Z,44.47
2019-03-02T05:37:40.722Z,33.03
2019-03-02T05:40:13.194Z,44.50
2019-03-02T05:42:41.773Z,45.10
2019-03-02T05:45:15.399Z,35.30
2019-03-02T05:47:45.957Z,39.50
2019-03-02T05:50:18.072Z,45.10
2019-03-02T05:52:46.536Z,40.23
2019-03-02T05:55:18.154Z,35.70
2019-03-02T05:57:45.181Z,30.37
2019-03-02T06:00:19.158Z,31.73
2019-03-02T06:02:48.303Z,31.53
2019-03-02T06:05:16.816Z,29.43
2019-03-02T06:07:45.274Z,28.87
2019-03-02T06:10:14.809Z,41.07
2019-03-02T06:12:43.374Z,31.60
2019-03-02T06:15:13.466Z,27.30
2019-03-02T06:17:41.974Z,29.37
2019-03-02T06:20:12.753Z,29.17
2019-03-02T06:22:41.603Z,33.17
2019-03-02T06:25:19.217Z,29.63
2019-03-02T06:27:43.033Z,27.50
2019-03-02T06:30:25.967Z,31.70
2019-03-02T06:32:54.461Z,27.87
2019-03-02T06:35:22.929Z,36.23
2019-03-02T06:37:52.855Z,29.40
2019-03-02T06:40:23.676Z,28.70
2019-03-02T06:42:53.869Z,28.43
2019-03-02T06:45:22.531Z,34.37
2019-03-02T06:47:51.040Z,29.60
2019-03-02T06:50:19.971Z,34.60
2019-03-02T06:52:48.432Z,29.70
2019-03-02T06:55:20.744Z,25.93
2019-03-02T06:57:50.072Z,29.67
2019-03-02T07:00:19.223Z,35.03
2019-03-02T07:02:47.717Z,31.10
2019-03-02T07:05:16.171Z,27.60
2019-03-02T07:07:44.637Z,26.47
2019-03-02T07:10:23.197Z,24.73
2019-03-02T07:12:51.918Z,24.80
2019-03-02T07:15:20.371Z,26.30
2019-03-02T07:18:06.457Z,30.73
2019-03-02T07:20:43.350Z,22.07
2019-03-02T07:23:11.952Z,28.63
2019-03-02T07:25:43.964Z,27.20
2019-03-02T07:28:10.650Z,25.00
2019-03-02T07:30:40.694Z,23.90
2019-03-02T07:33:09.360Z,20.97
2019-03-02T07:35:37.818Z,27.63
2019-03-02T07:38:08.301Z,21.80
2019-03-02T07:40:36.512Z,24.60
2019-03-02T07:43:06.008Z,30.60
2019-03-02T07:45:36.644Z,22.40
2019-03-02T07:48:05.436Z,27.47
2019-03-02T07:50:33.898Z,25.30
2019-03-02T07:53:02.397Z,28.03
2019-03-02T07:55:30.863Z,19.20
2019-03-02T07:57:59.350Z,17.57
2019-03-02T08:00:27.848Z,25.10
2019-03-02T08:02:56.361Z,27.80
2019-03-02T08:05:24.833Z,31.00
2019-03-02T08:07:53.327Z,28.77
2019-03-02T08:10:21.803Z,21.43
2019-03-02T08:12:50.263Z,20.57
2019-03-02T08:15:27.984Z,26.10
2019-03-02T08:17:56.441Z,19.30
2019-03-02T08:20:26.185Z,23.67
2019-03-02T08:22:54.850Z,18.53
2019-03-02T08:25:24.329Z,19.97
2019-03-02T08:27:52.853Z,23.07
2019-03-02T08:30:23.450Z,22.90
2019-03-02T08:32:54.078Z,14.87
2019-03-02T08:35:22.162Z,25.23
2019-03-02T08:37:50.647Z,23.47
2019-03-02T08:40:23.310Z,22.93
2019-03-02T08:42:49.649Z,26.63
2019-03-02T08:45:21.137Z,28.43
2019-03-02T08:47:49.613Z,32.13
2019-03-02T08:50:19.121Z,30.10
2019-03-02T08:52:47.728Z,15.40
2019-03-02T08:55:18.839Z,18.00
2019-03-02T08:57:50.014Z,18.07
2019-03-02T09:00:28.680Z,22.67
2019-03-02T09:02:58.907Z,21.70
2019-03-02T09:05:46.934Z,22.63
2019-03-02T09:07:57.614Z,20.90
2019-03-02T09:10:26.068Z,21.47
2019-03-02T09:12:57.930Z,19.73
2019-03-02T09:15:30.265Z,18.80
2019-03-02T09:17:58.850Z,21.47
2019-03-02T09:20:27.533Z,15.97
2019-03-02T09:23:00.058Z,15.83
2019-03-02T09:25:27.754Z,36.70
2019-03-02T09:27:57.415Z,26.40
2019-03-02T09:30:25.958Z,24.03
2019-03-02T09:32:55.881Z,23.47
2019-03-02T09:35:24.398Z,24.37
2019-03-02T09:37:52.988Z,16.87
2019-03-02T09:40:24.451Z,13.60
2019-03-02T09:42:52.876Z,21.50
2019-03-02T09:45:21.374Z,18.83
2019-03-02T09:47:51.845Z,14.20
2019-03-02T09:50:23.685Z,27.43
2019-03-02T09:52:52.164Z,20.70
2019-03-02T09:55:22.325Z,15.93
2019-03-02T09:57:50.792Z,25.87
2019-03-02T10:00:25.746Z,15.07
2019-03-02T10:02:54.065Z,18.57
2019-03-02T10:05:26.090Z,27.23
2019-03-02T10:07:54.057Z,19.17
2019-03-02T10:10:25.147Z,17.70
2019-03-02T10:12:53.272Z,17.03
2019-03-02T10:15:29.864Z,17.83
2019-03-02T10:17:58.456Z,16.00
2019-03-02T10:20:26.908Z,27.20
2019-03-02T10:22:55.411Z,20.83
2019-03-02T10:25:26.464Z,31.03
2019-03-02T10:27:57.375Z,20.73
2019-03-02T10:30:26.156Z,23.23
2019-03-02T10:32:55.895Z,22.80
2019-03-02T10:35:25.317Z,20.87
2019-03-02T10:37:53.809Z,17.93
2019-03-02T10:40:23.282Z,19.33
2019-03-02T10:42:52.035Z,18.63
2019-03-02T10:45:21.684Z,25.20
2019-03-02T10:47:50.203Z,9.70
2019-03-02T10:50:24.988Z,29.87
2019-03-02T10:52:53.817Z,16.53
2019-03-02T10:55:23.192Z,16.50
2019-03-02T10:57:51.704Z,26.23
2019-03-02T11:00:31.301Z,18.07
2019-03-02T11:03:03.624Z,23.63
2019-03-02T11:05:42.819Z,24.87
2019-03-02T11:08:21.867Z,14.20
2019-03-02T11:11:07.887Z,23.83
2019-03-02T11:13:37.987Z,10.97
2019-03-02T11:16:10.556Z,25.33
2019-03-02T11:18:46.559Z,17.40
2019-03-02T11:21:25.210Z,14.07
2019-03-02T11:24:10.555Z,11.63
2019-03-02T11:26:56.772Z,12.03
2019-03-02T11:29:50.943Z,12.37
2019-03-02T11:32:20.418Z,12.03
2019-03-02T11:35:01.115Z,15.50
2019-03-02T11:37:36.678Z,11.47
2019-03-02T11:40:12.079Z,10.70
2019-03-02T11:42:45.211Z,12.70
2019-03-02T11:45:15.303Z,15.00
2019-03-02T11:47:48.129Z,13.70
2019-03-02T11:50:18.342Z,17.43
2019-03-02T11:52:54.260Z,8.63
2019-03-02T11:55:24.367Z,14.43
2019-03-02T11:58:00.422Z,6.00
2019-03-02T12:00:39.194Z,11.10
2019-03-02T12:03:12.136Z,9.57
2019-03-02T12:05:51.210Z,12.00
2019-03-02T12:08:22.075Z,10.80
2019-03-02T12:10:53.175Z,12.10
2019-03-02T12:13:23.277Z,13.20
2019-03-02T12:15:53.401Z,14.07
2019-03-02T12:18:23.508Z,8.30
2019-03-02T12:20:53.597Z,6.80
2019-03-02T12:23:26.835Z,10.43
2019-03-02T12:26:02.435Z,11.27
2019-03-02T12:28:40.092Z,9.30
2019-03-02T12:31:28.043Z,12.20
2019-03-02T12:33:57.697Z,9.40
2019-03-02T12:36:31.298Z,17.20
2019-03-02T12:39:07.436Z,13.70
2019-03-02T12:41:43.242Z,9.47
2019-03-02T12:44:21.319Z,10.10
2019-03-02T12:47:06.847Z,12.33
2019-03-02T12:49:53.204Z,10.57
2019-03-02T12:52:28.243Z,10.27
2019-03-02T12:55:04.188Z,36.47
2019-03-02T12:57:34.292Z,12.67
2019-03-02T13:00:04.401Z,12.70
2019-03-02T13:02:37.070Z,12.30
2019-03-02T13:05:10.484Z,9.40
2019-03-02T13:07:43.288Z,13.33
2019-03-02T13:10:15.168Z,6.10
2019-03-02T13:12:54.438Z,9.63
2019-03-02T13:15:42.260Z,12.83
2019-03-02T13:18:15.572Z,18.83
2019-03-02T13:20:45.659Z,7.20
2019-03-02T13:23:15.748Z,9.87
2019-03-02T13:25:45.892Z,10.20
2019-03-02T13:28:15.989Z,9.47
2019-03-02T13:30:47.338Z,6.60
2019-03-02T13:33:34.248Z,10.67
2019-03-02T13:36:12.777Z,10.13
2019-03-02T13:38:59.210Z,12.33
2019-03-02T13:41:35.134Z,14.00
2019-03-02T13:44:08.412Z,6.73
2019-03-02T13:46:41.043Z,13.20
2019-03-02T13:49:20.312Z,11.40
2019-03-02T13:51:52.863Z,7.10
2019-03-02T13:54:28.981Z,10.50
2019-03-02T13:57:15.417Z,8.70
2019-03-02T13:59:48.212Z,5.17
2019-03-02T14:02:27.773Z,19.30
2019-03-02T14:05:04.671Z,4.60
2019-03-02T14:07:31.208Z,15.43
2019-03-02T14:10:07.460Z,10.93
2019-03-02T14:12:40.316Z,13.67
2019-03-02T14:15:23.093Z,13.13
2019-03-02T14:18:08.344Z,6.83
2019-03-02T14:20:44.153Z,7.53
2019-03-02T14:23:20.441Z,10.10
2019-03-02T14:25:50.571Z,5.33
2019-03-02T14:28:23.581Z,8.43
2019-03-02T14:30:57.215Z,8.57
2019-03-02T14:33:44.592Z,5.63
2019-03-02T14:36:30.726Z,4.40
2019-03-02T14:39:16.971Z,4.90
2019-03-02T14:41:52.998Z,12.30
2019-03-02T14:44:33.503Z,10.77
2019-03-02T14:47:09.550Z,6.73
2019-03-02T14:49:43.246Z,5.20
2019-03-02T14:52:28.992Z,4.57
2019-03-02T14:54:57.847Z,8.20
2019-03-02T14:57:39.861Z,7.57
2019-03-02T15:00:23.042Z,16.53
2019-03-02T15:02:58.741Z,9.30
2019-03-02T15:05:45.100Z,7.70
2019-03-02T15:08:20.757Z,15.17
2019-03-02T15:11:07.004Z,11.97
2019-03-02T15:13:43.100Z,9.37
2019-03-02T15:16:25.343Z,10.13
2019-03-02T15:19:02.319Z,11.33
2019-03-02T15:21:49.545Z,6.60
2019-03-02T15:24:20.521Z,16.27
2019-03-02T15:27:02.617Z,9.63
2019-03-02T15:29:32.747Z,12.33
2019-03-02T15:32:07.668Z,8.23
2019-03-02T15:34:57.748Z,14.17
2019-03-02T15:37:25.883Z,14.33
2019-03-02T15:39:56.105Z,12.60
2019-03-02T15:42:32.516Z,15.00
2019-03-02T15:45:11.876Z,13.20
2019-03-02T15:47:47.501Z,15.07
2019-03-02T15:50:17.711Z,12.20
2019-03-02T15:52:49.013Z,9.57
2019-03-02T15:55:24.827Z,7.30
2019-03-02T15:58:10.132Z,9.57
2019-03-02T16:00:50.670Z,7.73
2019-03-02T16:03:33.240Z,9.57
2019-03-02T16:06:08.898Z,11.60
2019-03-02T16:08:55.386Z,11.57
2019-03-02T16:11:40.280Z,9.03
2019-03-02T16:14:16.568Z,11.83
2019-03-02T16:17:03.589Z,17.60
2019-03-02T16:19:39.679Z,10.23
2019-03-02T16:22:15.729Z,12.10
2019-03-02T16:24:51.303Z,15.40
2019-03-02T16:27:39.583Z,8.40
2019-03-02T16:30:31.868Z,11.90
2019-03-02T16:33:17.569Z,10.07
2019-03-02T16:35:47.663Z,8.33
2019-03-02T16:38:34.195Z,12.73
2019-03-02T16:41:07.018Z,9.53
2019-03-02T16:43:37.117Z,14.13
2019-03-02T16:46:07.241Z,15.47
2019-03-02T16:48:52.709Z,20.30
2019-03-02T16:51:29.658Z,11.53
2019-03-02T16:54:06.232Z,14.90
2019-03-02T16:56:53.963Z,12.77
2019-03-02T16:59:28.081Z,18.73
2019-03-02T17:02:13.786Z,13.70
2019-03-02T17:04:59.177Z,9.40
2019-03-02T17:07:29.385Z,10.60
2019-03-02T17:10:05.221Z,13.50
2019-03-02T17:12:37.914Z,10.90
2019-03-02T17:15:13.118Z,19.30
2019-03-02T17:17:50.622Z,13.73
2019-03-02T17:20:20.840Z,15.60
2019-03-02T17:22:59.675Z,18.03
2019-03-02T17:25:44.914Z,18.63
2019-03-02T17:28:15.059Z,13.83
2019-03-02T17:30:48.032Z,9.67
2019-03-02T17:33:36.414Z,11.83
2019-03-02T17:36:09.436Z,11.70
2019-03-02T17:38:51.718Z,8.27
2019-03-02T17:41:24.265Z,14.87
2019-03-02T17:44:10.346Z,11.70
2019-03-02T17:46:47.102Z,18.83
2019-03-02T17:49:29.774Z,13.60
2019-03-02T17:52:09.459Z,10.80
2019-03-02T17:54:42.265Z,11.87
2019-03-02T17:57:29.547Z,14.73
2019-03-02T18:00:19.622Z,13.93
2019-03-02T18:02:51.095Z,23.73
2019-03-02T18:05:21.211Z,11.70
2019-03-02T18:07:57.236Z,15.20
2019-03-02T18:10:27.358Z,11.60
2019-03-02T18:13:06.231Z,12.83
2019-03-02T18:15:38.591Z,16.40
2019-03-02T18:18:07.027Z,18.63
2019-03-02T18:20:35.486Z,13.80
2019-03-02T18:23:03.964Z,18.43
2019-03-02T18:25:32.428Z,21.73
2019-03-02T18:28:00.967Z,28.07
2019-03-02T18:30:29.471Z,19.20
2019-03-02T18:32:59.568Z,17.80
2019-03-02T18:35:28.105Z,19.03
2019-03-02T18:37:56.601Z,12.10
2019-03-02T18:40:25.133Z,17.13
2019-03-02T18:42:53.587Z,14.83
2019-03-02T18:45:22.197Z,11.20
2019-03-02T18:47:50.653Z,11.50
2019-03-02T18:50:37.024Z,14.80
2019-03-02T18:53:05.658Z,15.30
2019-03-02T18:55:34.241Z,13.80
2019-03-02T18:58:02.744Z,10.70
2019-03-02T19:00:32.852Z,15.77
2019-03-02T19:03:01.322Z,15.73
2019-03-02T19:05:30.456Z,15.27
2019-03-02T19:08:00.152Z,10.40
2019-03-02T19:10:29.023Z,12.57
2019-03-02T19:12:58.701Z,15.43
2019-03-02T19:15:27.213Z,10.83
2019-03-02T19:17:55.684Z,14.17
2019-03-02T19:20:24.647Z,12.73
2019-03-02T19:22:53.103Z,12.13
2019-03-02T19:25:21.632Z,14.23
2019-03-02T19:27:50.123Z,9.97
2019-03-02T19:30:21.194Z,12.70
2019-03-02T19:32:49.662Z,11.17
2019-03-02T19:35:18.194Z,11.57
2019-03-02T19:37:47.319Z,15.33
2019-03-02T19:40:32.895Z,15.87
2019-03-02T19:43:01.371Z,11.30
2019-03-02T19:45:29.816Z,10.93
2019-03-02T19:47:58.444Z,15.53
2019-03-02T19:50:26.897Z,12.23
2019-03-02T19:52:55.348Z,8.77
2019-03-02T19:55:23.839Z,10.20
2019-03-02T19:57:52.295Z,11.80
2019-03-02T20:00:29.334Z,10.37
2019-03-02T20:02:57.776Z,15.40
2019-03-02T20:05:26.320Z,21.23
2019-03-02T20:07:54.881Z,10.13
2019-03-02T20:10:23.497Z,9.73
2019-03-02T20:12:51.947Z,11.23
2019-03-02T20:15:25.288Z,9.53
2019-03-02T20:17:53.737Z,16.43
2019-03-02T20:20:22.259Z,9.97
2019-03-02T20:22:50.761Z,14.10
2019-03-02T20:25:19.983Z,11.03
2019-03-02T20:27:48.520Z,9.80
2019-03-02T20:30:21.868Z,11.90
2019-03-02T20:32:50.332Z,12.47
2019-03-02T20:35:21.951Z,13.37
2019-03-02T20:37:50.512Z,24.63
2019-03-02T20:40:27.437Z,14.60
2019-03-02T20:42:56.009Z,17.20
2019-03-02T20:45:24.524Z,18.93
2019-03-02T20:47:52.986Z,11.93
2019-03-02T20:50:25.767Z,14.20
2019-03-02T20:52:54.202Z,14.50
2019-03-02T20:55:24.089Z,16.33
2019-03-02T20:57:52.987Z,18.10
2019-03-02T21:00:36.025Z,13.40
2019-03-02T21:03:04.580Z,16.80
2019-03-02T21:05:33.577Z,16.73
2019-03-02T21:08:02.034Z,14.20
2019-03-02T21:10:32.260Z,11.50
2019-03-02T21:13:00.718Z,12.60
2019-03-02T21:15:33.757Z,13.57
2019-03-02T21:18:02.414Z,21.97
2019-03-02T21:20:31.043Z,15.33
2019-03-02T21:22:59.532Z,14.40
2019-03-02T21:25:28.228Z,10.93
2019-03-02T21:27:56.716Z,18.20
2019-03-02T21:30:25.214Z,15.47
2019-03-02T21:32:53.711Z,17.93
2019-03-02T21:35:22.170Z,15.77
2019-03-02T21:37:50.660Z,17.30
2019-03-02T21:40:24.079Z,18.17
2019-03-02T21:42:52.589Z,17.90
2019-03-02T21:45:26.665Z,15.30
2019-03-02T21:47:55.331Z,16.30
2019-03-02T21:50:35.685Z,17.40
2019-03-02T21:53:04.286Z,24.80
2019-03-02T21:55:32.743Z,21.30
2019-03-02T21:58:01.214Z,17.20
2019-03-02T22:00:30.542Z,21.27
2019-03-02T22:02:59.059Z,17.27
2019-03-02T22:05:27.581Z,18.27
2019-03-02T22:07:56.091Z,16.63
2019-03-02T22:10:27.647Z,20.40
2019-03-02T22:12:56.177Z,18.60
2019-03-02T22:15:24.667Z,17.70
2019-03-02T22:17:54.606Z,18.77
2019-03-02T22:20:23.058Z,20.27
2019-03-02T22:22:51.558Z,17.37
2019-03-02T22:25:21.766Z,20.37
2019-03-02T22:27:50.239Z,23.50
2019-03-02T22:30:24.273Z,30.43
2019-03-02T22:32:52.728Z,29.23
2019-03-02T22:35:21.391Z,19.87
2019-03-02T22:37:49.875Z,28.60
2019-03-02T22:40:20.938Z,25.70
2019-03-02T22:42:49.395Z,19.00
2019-03-02T22:45:18.329Z,26.50
2019-03-02T22:47:47.057Z,21.80
2019-03-02T22:50:32.655Z,23.33
2019-03-02T22:53:01.109Z,30.40
2019-03-02T22:55:29.787Z,26.60
2019-03-02T22:57:58.332Z,24.40
2019-03-02T23:00:30.531Z,25.33
2019-03-02T23:02:57.968Z,24.60
2019-03-02T23:05:26.454Z,26.67
2019-03-02T23:07:54.925Z,22.27
2019-03-02T23:10:23.389Z,30.70
2019-03-02T23:12:51.894Z,23.10
2019-03-02T23:15:26.718Z,27.73
2019-03-02T23:17:55.174Z,32.70
2019-03-02T23:20:23.668Z,24.80
2019-03-02T23:22:52.124Z,22.13
2019-03-02T23:25:20.578Z,27.40
2019-03-02T23:27:49.058Z,23.47
2019-03-02T23:30:22.670Z,28.77
2019-03-02T23:32:51.129Z,26.33
2019-03-02T23:35:19.646Z,31.67
2019-03-02T23:37:48.102Z,33.77
2019-03-02T23:40:21.143Z,30.07
2019-03-02T23:42:49.702Z,26.07
2019-03-02T23:45:19.096Z,25.73
2019-03-02T23:47:47.622Z,26.43
2019-03-02T23:50:16.346Z,32.93
2019-03-02T23:52:44.853Z,33.93
2019-03-02T23:55:14.447Z,37.33
2019-03-02T23:57:44.217Z,34.63
